Time;durP1;ratioP1;P1;durP2;ratioP2;P2;SDS_P1;SDS_P2;PMS_P1;PMS_P2;Temp;Humidity;BMP_temperature;BMP_pressure;BME280_temperature;BME280_humidity;BME280_pressure;Samples;Min_cycle;Max_cycle;Signal;HPM_P1;HPM_P2
2022/04/16 00:00:28;;;;;;;1.60;1.50;;;;;;;19.65;48.03;98357.75;4884512;29;20191;-89
2022/04/16 00:02:55;;;;;;;2.00;1.67;;;;;;;19.78;48.26;98375.44;4895024;29;20283;-90
2022/04/16 00:05:23;;;;;;;1.70;1.60;;;;;;;19.37;48.78;98296.88;4873540;29;20205;-88
2022/04/16 00:08:06;;;;;;;2.17;1.53;;;;;;;19.32;48.46;98287.25;4897176;29;20227;-89
2022/04/16 00:10:37;;;;;;;1.60;1.50;;;;;;;19.29;48.57;98290.53;4885852;29;20203;-89
2022/04/16 00:13:04;;;;;;;1.70;1.60;;;;;;;19.24;48.44;98291.03;4862833;29;20203;-89
2022/04/16 00:15:31;;;;;;;1.40;1.30;;;;;;;18.89;48.48;98225.56;4895886;29;20226;-90
2022/04/16 00:17:58;;;;;;;1.80;1.70;;;;;;;19.14;48.36;98273.53;4880945;29;20231;-88
2022/04/16 00:20:26;;;;;;;1.60;1.50;;;;;;;19.16;48.54;98275.34;4880008;29;20232;-89
2022/04/16 00:22:54;;;;;;;1.50;1.40;;;;;;;19.77;48.35;98382.19;4895156;29;20227;-89
2022/04/16 00:25:21;;;;;;;1.70;1.60;;;;;;;18.92;48.33;98230.81;4898059;29;20203;-90
2022/04/16 00:27:48;;;;;;;1.60;1.50;;;;;;;18.49;48.42;98142.00;4878871;29;20219;-90
2022/04/16 00:30:17;;;;;;;1.63;1.53;;;;;;;18.95;48.35;98228.44;4879818;29;20223;-90
2022/04/16 00:32:44;;;;;;;1.60;1.50;;;;;;;18.55;48.28;98147.41;4869739;29;20198;-90
2022/04/16 00:35:11;;;;;;;1.60;1.50;;;;;;;19.32;48.41;98292.34;4891949;29;20199;-91
2022/04/16 00:37:37;;;;;;;1.70;1.60;;;;;;;18.60;48.36;98157.03;4886140;29;20232;-89
2022/04/16 00:40:06;;;;;;;1.80;1.70;;;;;;;18.86;48.38;98201.66;4896355;29;20217;-89
2022/04/16 00:42:39;;;;;;;1.50;1.40;;;;;;;19.43;48.41;98294.66;4879615;29;20490;-90
2022/04/16 00:45:07;;;;;;;1.50;1.40;;;;;;;19.01;48.34;98220.25;4895359;29;20243;-90
2022/04/16 00:47:33;;;;;;;1.50;1.40;;;;;;;19.28;48.32;98281.13;4879378;29;20231;-87
2022/04/16 00:50:00;;;;;;;1.60;1.50;;;;;;;19.12;48.30;98245.44;4863003;29;20211;-89
2022/04/16 00:52:27;;;;;;;1.60;1.50;;;;;;;19.71;48.40;98348.75;4890820;29;20232;-89
2022/04/16 00:54:54;;;;;;;1.50;1.40;;;;;;;19.15;48.41;98249.81;4893979;29;20241;-89
2022/04/16 00:57:21;;;;;;;1.60;1.50;;;;;;;19.64;48.50;98322.84;4878379;29;20606;-90
2022/04/16 00:59:47;;;;;;;1.40;1.30;;;;;;;19.17;48.20;98249.09;4878226;29;20207;-88
2022/04/16 01:02:14;;;;;;;1.67;1.57;;;;;;;19.10;48.39;98230.88;4879255;29;20203;-90
2022/04/16 01:04:41;;;;;;;1.60;1.50;;;;;;;19.36;47.97;98279.81;4890289;29;20218;-89
2022/04/16 01:07:07;;;;;;;1.80;1.70;;;;;;;19.10;48.37;98231.75;4899685;29;20222;-89
2022/04/16 01:09:34;;;;;;;1.37;1.27;;;;;;;19.78;48.34;98357.56;4895015;29;20203;-87
2022/04/16 01:12:01;;;;;;;1.57;1.47;;;;;;;18.83;47.94;98191.31;4882214;29;20203;-90
2022/04/16 01:14:28;;;;;;;1.60;1.50;;;;;;;19.07;48.29;98233.28;4877094;29;20223;-89
2022/04/16 01:16:57;;;;;;;1.73;1.63;;;;;;;19.07;48.43;98234.13;4895079;29;20218;-88
2022/04/16 01:19:25;;;;;;;1.53;1.43;;;;;;;19.25;48.31;98267.31;4871975;29;20203;-90
2022/04/16 01:21:51;;;;;;;1.70;1.60;;;;;;;19.52;48.46;98307.84;4883758;29;20204;-89
2022/04/16 01:24:18;;;;;;;1.70;1.60;;;;;;;19.55;48.49;98320.75;4894315;29;20421;-90
2022/04/16 01:26:44;;;;;;;1.40;1.30;;;;;;;19.71;48.44;98340.19;4893753;29;20219;-90
2022/04/16 01:29:11;;;;;;;1.60;1.50;;;;;;;19.70;48.37;98341.00;4882299;29;20533;-89
2022/04/16 01:31:38;;;;;;;1.73;1.63;;;;;;;19.53;48.06;98307.03;4893713;29;20211;-89
2022/04/16 01:34:04;;;;;;;1.93;1.57;;;;;;;19.35;48.51;98277.19;4880115;29;20222;-90
2022/04/16 01:36:31;;;;;;;1.50;1.40;;;;;;;19.06;48.30;98218.78;4880279;29;20215;-90
2022/04/16 01:38:58;;;;;;;1.50;1.40;;;;;;;18.68;48.50;98165.06;4873234;29;20199;-90
2022/04/16 01:41:25;;;;;;;1.40;1.30;;;;;;;19.53;48.26;98299.38;4850417;29;20210;-90
2022/04/16 01:43:51;;;;;;;1.67;1.57;;;;;;;19.68;48.35;98323.09;4882366;29;20226;-89
2022/04/16 01:46:18;;;;;;;1.60;1.50;;;;;;;19.22;48.14;98241.69;4900716;29;20203;-89
2022/04/16 01:48:45;;;;;;;1.70;1.60;;;;;;;19.77;48.17;98335.41;4867440;29;20210;-90
2022/04/16 01:51:11;;;;;;;2.00;1.80;;;;;;;19.22;48.29;98239.13;4882561;29;20207;-89
2022/04/16 01:56:20;;;;;;;1.63;1.53;;;;;;;16.46;48.39;97849.94;4740956;27;20286;-92
2022/04/16 01:58:49;;;;;;;1.40;1.33;;;;;;;15.43;48.30;97595.06;4908761;29;20210;-93
2022/04/16 02:01:19;;;;;;;1.27;1.20;;;;;;;16.76;48.37;97835.50;4905387;29;20186;-89
2022/04/16 02:03:46;;;;;;;1.77;1.67;;;;;;;15.98;48.46;97723.91;4906533;29;20222;-91
2022/04/16 02:06:13;;;;;;;1.50;1.40;;;;;;;16.21;47.95;97751.34;4906502;29;20187;-93
2022/04/16 02:08:40;;;;;;;1.97;1.70;;;;;;;13.03;49.37;97215.81;4906038;29;20241;-93
2022/04/16 02:11:10;;;;;;;1.20;1.20;;;;;;;14.94;49.36;97518.84;4906211;29;20270;-93
2022/04/16 02:13:46;;;;;;;1.67;1.57;;;;;;;15.94;48.46;97681.44;4890939;29;20305;-91
2022/04/16 02:16:13;;;;;;;1.73;1.63;;;;;;;12.91;48.25;97199.97;4906113;29;20193;-93
2022/04/16 02:18:40;;;;;;;1.53;1.43;;;;;;;13.57;48.53;97271.91;4890634;29;20246;-92
2022/04/16 02:21:10;;;;;;;1.50;1.40;;;;;;;15.33;48.57;97579.22;4890944;29;20233;-94
2022/04/16 02:23:37;;;;;;;1.47;1.37;;;;;;;18.42;48.38;98117.06;4905475;29;20271;-92
2022/04/16 02:26:07;;;;;;;1.50;1.40;;;;;;;19.65;48.71;98332.25;4888652;29;20194;-92
2022/04/16 02:28:34;;;;;;;1.70;1.60;;;;;;;17.59;48.37;98008.44;4903918;29;20206;-92
2022/04/16 02:31:01;;;;;;;2.17;1.50;;;;;;;19.41;48.90;98292.78;4904081;29;20206;-93
2022/04/16 02:33:28;;;;;;;1.30;1.30;;;;;;;18.32;48.74;98105.50;4904454;29;20288;-92
2022/04/16 02:35:55;;;;;;;1.53;1.43;;;;;;;17.93;48.87;98042.41;4901707;29;20206;-93
2022/04/16 02:38:24;;;;;;;1.40;1.30;;;;;;;18.54;48.98;98155.84;4869563;29;20247;-93
2022/04/16 02:40:53;;;;;;;1.30;1.30;;;;;;;12.96;48.76;97198.53;4886038;29;20186;-91
2022/04/16 02:43:20;;;;;;;1.50;1.40;;;;;;;17.47;48.56;97977.28;4904982;29;20191;-92
2022/04/16 02:48:33;;;;;;;1.43;1.33;;;;;;;14.49;48.59;97518.06;4893123;29;20230;-94
2022/04/16 02:51:00;;;;;;;1.20;1.20;;;;;;;15.52;48.77;97625.94;4904662;29;20190;-93
2022/04/16 02:53:26;;;;;;;1.50;1.40;;;;;;;17.61;48.27;98022.06;4903956;29;20226;-91
2022/04/16 02:55:55;;;;;;;1.70;1.60;;;;;;;18.59;48.90;98155.28;4887006;29;20200;-92
2022/04/16 02:58:22;;;;;;;1.50;1.40;;;;;;;14.68;49.05;97565.47;4888677;29;20214;-93
2022/04/16 03:00:49;;;;;;;1.60;1.50;;;;;;;14.66;48.93;97483.59;4903651;29;20236;-93
2022/04/16 03:03:16;;;;;;;1.50;1.40;;;;;;;15.43;49.26;97671.03;4905900;29;20206;-94
2022/04/16 03:05:48;;;;;;;1.60;1.50;;;;;;;17.68;49.20;98067.38;4923238;29;20258;-92
2022/04/16 03:08:16;;;;;;;1.57;1.47;;;;;;;18.26;49.69;98188.28;4878429;29;20221;-93
2022/04/16 03:10:44;;;;;;;1.57;1.47;;;;;;;15.03;48.51;97613.88;4903616;29;20210;-92
2022/04/16 03:13:13;;;;;;;1.90;1.63;;;;;;;15.27;48.91;97638.00;4873323;29;20201;-93
2022/04/16 03:18:28;;;;;;;1.60;1.50;;;;;;;18.26;49.52;98168.78;4892669;29;20225;-90
2022/04/16 03:20:57;;;;;;;1.70;1.60;;;;;;;15.91;48.68;97746.28;4873600;29;20182;-93
2022/04/16 03:23:24;;;;;;;1.43;1.33;;;;;;;15.88;48.95;97715.72;4903571;29;20182;-91
2022/04/16 03:25:56;;;;;;;1.37;1.27;;;;;;;15.56;49.01;97710.53;4870916;29;20227;-90
2022/04/16 03:28:23;;;;;;;1.63;1.53;;;;;;;16.97;49.27;97949.19;4871632;29;20226;-93
2022/04/16 03:30:50;;;;;;;1.40;1.30;;;;;;;16.86;49.11;97874.13;4887287;29;20206;-92
2022/04/16 03:33:17;;;;;;;1.50;1.40;;;;;;;14.86;48.50;97528.53;4902736;29;20190;-93
2022/04/16 03:35:44;;;;;;;1.60;1.50;;;;;;;15.44;49.19;97675.28;4888649;29;20222;-92
2022/04/16 03:38:13;;;;;;;1.27;1.27;;;;;;;15.96;49.00;97722.94;4887303;29;20222;-88
2022/04/16 03:40:41;;;;;;;1.50;1.40;;;;;;;14.80;48.86;97573.75;4873183;29;20186;-89
2022/04/16 03:43:08;;;;;;;1.47;1.37;;;;;;;16.97;49.11;97887.38;4903131;29;20206;-93
2022/04/16 03:45:35;;;;;;;1.67;1.57;;;;;;;15.42;48.86;97627.91;4920014;29;20190;-93
2022/04/16 03:48:04;;;;;;;1.43;1.33;;;;;;;14.12;48.92;97407.22;4887019;29;20222;-93
2022/04/16 03:50:31;;;;;;;1.43;1.33;;;;;;;14.18;48.68;97417.66;4887211;29;20198;-93
2022/04/16 03:53:01;;;;;;;1.30;1.30;;;;;;;17.84;49.03;98065.72;4887952;29;20214;-93
2022/04/16 04:01:02;;;;;;;1.47;1.37;;;;;;;13.22;49.12;97343.84;4891957;29;20250;-94
2022/04/16 04:03:31;;;;;;;1.47;1.37;;;;;;;17.08;49.13;97939.63;4875826;29;20201;-92
2022/04/16 04:06:01;;;;;;;1.50;1.40;;;;;;;13.09;49.13;97265.72;4906952;29;20201;-91
2022/04/16 04:08:28;;;;;;;1.60;1.50;;;;;;;15.89;49.20;97733.53;4901827;29;20226;-92
2022/04/16 04:10:55;;;;;;;1.20;1.20;;;;;;;14.64;49.20;97521.47;4902878;29;20229;-93
2022/04/16 04:13:23;;;;;;;1.40;1.30;;;;;;;13.18;49.11;97261.22;4903047;29;20206;-93
2022/04/16 04:15:53;;;;;;;1.60;1.50;;;;;;;14.59;49.21;97554.84;4902824;29;20212;-92
2022/04/16 04:18:24;;;;;;;1.50;1.40;;;;;;;16.71;48.92;97886.00;4902049;29;20202;-94
2022/04/16 04:20:52;;;;;;;1.47;1.37;;;;;;;12.97;49.19;97223.00;4873153;29;20201;-93
2022/04/16 04:23:22;;;;;;;1.60;1.50;;;;;;;15.51;49.26;97689.19;4887249;29;20206;-93
2022/04/16 04:25:49;;;;;;;1.43;1.33;;;;;;;13.49;48.36;97360.59;4871910;29;20202;-93
2022/04/16 04:28:16;;;;;;;1.70;1.60;;;;;;;16.47;49.13;97869.44;4852417;29;20211;-92
2022/04/16 04:30:43;;;;;;;1.20;1.20;;;;;;;17.86;48.52;98107.31;4867546;29;20228;-90
2022/04/16 04:33:12;;;;;;;1.40;1.30;;;;;;;18.07;49.32;98214.41;4872348;29;20202;-90
2022/04/16 04:35:38;;;;;;;1.50;1.40;;;;;;;16.36;49.15;97835.88;4902598;29;20207;-92
2022/04/16 04:38:05;;;;;;;1.40;1.30;;;;;;;14.18;49.11;97448.81;4887704;29;20210;-94
2022/04/16 04:40:32;;;;;;;1.30;1.20;;;;;;;17.05;49.09;97949.59;4901826;29;20198;-93
2022/04/16 04:42:58;;;;;;;1.30;1.20;;;;;;;18.52;48.94;98211.78;4917806;29;20209;-93
2022/04/16 04:45:25;;;;;;;1.50;1.40;;;;;;;18.13;49.66;98154.56;4888038;29;20234;-93
2022/04/16 04:47:52;;;;;;;1.50;1.40;;;;;;;16.03;49.37;97797.66;4901503;29;20202;-89
2022/04/16 04:50:18;;;;;;;1.50;1.40;;;;;;;15.57;48.93;97712.31;4885391;29;20214;-92
2022/04/16 04:52:45;;;;;;;1.30;1.30;;;;;;;14.32;49.12;97506.13;4903054;29;20203;-92
2022/04/16 04:55:12;;;;;;;1.30;1.20;;;;;;;18.40;48.93;98217.88;4886479;29;20230;-92
2022/04/16 04:57:44;;;;;;;1.57;1.47;;;;;;;18.89;49.26;98301.13;4887484;29;20202;-92
2022/04/16 05:00:11;;;;;;;1.43;1.33;;;;;;;18.83;49.38;98300.81;4885628;29;20217;-90
2022/04/16 05:02:45;;;;;;;1.50;1.40;;;;;;;16.33;49.00;97867.78;4881139;29;20642;-90
2022/04/16 05:05:12;;;;;;;1.67;1.57;;;;;;;15.70;49.01;97746.00;4895589;29;20229;-91
2022/04/16 05:07:39;;;;;;;1.50;1.40;;;;;;;16.14;48.69;97875.19;4908732;29;20255;-91
2022/04/16 05:10:06;;;;;;;1.50;1.40;;;;;;;14.65;49.02;97581.34;4890653;29;20668;-90
2022/04/16 05:12:35;;;;;;;1.13;1.13;;;;;;;14.24;49.06;97509.00;4879619;29;20615;-91
2022/04/16 05:15:06;;;;;;;1.50;1.40;;;;;;;14.52;49.49;97599.16;4878701;29;20764;-91
2022/04/16 05:17:37;;;;;;;1.40;1.30;;;;;;;15.57;49.03;97806.88;4890488;29;20305;-90
2022/04/16 05:20:07;;;;;;;1.40;1.30;;;;;;;17.85;49.32;98120.84;4878245;29;20237;-91
2022/04/16 05:22:34;;;;;;;1.60;1.50;;;;;;;16.32;49.13;97861.84;4846645;29;20648;-92
2022/04/16 05:25:01;;;;;;;1.33;1.30;;;;;;;18.14;49.26;98204.66;4846774;29;20219;-91
2022/04/16 05:27:30;;;;;;;1.37;1.27;;;;;;;19.47;49.16;98407.81;4862173;29;20215;-91
2022/04/16 05:30:04;;;;;;;2.23;1.30;;;;;;;15.69;49.01;97832.91;4881285;29;20222;-90
2022/04/16 05:32:37;;;;;;;1.40;1.30;;;;;;;17.37;49.34;98114.75;4898219;29;20226;-91
2022/04/16 05:35:05;;;;;;;1.40;1.30;;;;;;;16.97;49.02;97999.09;4876928;29;20242;-92
2022/04/16 05:37:32;;;;;;;1.40;1.30;;;;;;;14.41;49.31;97609.41;4877993;29;20245;-92
2022/04/16 05:40:03;;;;;;;1.60;1.50;;;;;;;17.48;48.82;98065.41;4879670;29;20240;-92
2022/04/16 05:42:29;;;;;;;1.23;1.23;;;;;;;13.71;49.40;97440.19;4861039;29;20199;-91
2022/04/16 05:45:02;;;;;;;1.30;1.30;;;;;;;17.43;49.15;98104.91;4888476;29;20218;-87
2022/04/16 05:47:29;;;;;;;1.40;1.30;;;;;;;15.63;49.29;97756.56;4881674;29;20685;-91
2022/04/16 05:49:56;;;;;;;1.40;1.30;;;;;;;15.63;49.08;97751.50;4899455;29;20214;-92
2022/04/16 05:52:24;;;;;;;1.50;1.40;;;;;;;12.86;49.05;97272.81;4879613;29;20271;-91
2022/04/16 05:54:51;;;;;;;1.50;1.40;;;;;;;18.62;49.04;98281.88;4884467;29;20246;-90
2022/04/16 05:57:19;;;;;;;1.50;1.40;;;;;;;14.48;48.99;97606.47;4886975;29;20202;-92
2022/04/16 05:59:49;;;;;;;1.47;1.37;;;;;;;16.97;49.29;97994.91;4880033;29;20199;-92
2022/04/16 06:02:15;;;;;;;1.50;1.40;;;;;;;17.52;49.20;98100.34;4904580;29;20190;-92
2022/04/16 06:04:42;;;;;;;1.50;1.40;;;;;;;17.90;48.92;98225.31;4907317;29;20238;-94
2022/04/16 06:07:09;;;;;;;1.40;1.30;;;;;;;19.00;49.21;98356.03;4893006;29;20219;-92
2022/04/16 06:09:36;;;;;;;1.80;1.70;;;;;;;16.66;48.97;97966.06;4922899;29;20213;-94
2022/04/16 06:12:05;;;;;;;1.60;1.50;;;;;;;16.94;48.79;97999.81;4877201;29;20190;-94
2022/04/16 06:14:32;;;;;;;1.80;1.70;;;;;;;14.42;48.64;97593.47;4907956;29;20230;-93
2022/04/16 06:16:59;;;;;;;1.90;1.80;;;;;;;16.59;48.15;98009.66;4877458;29;20187;-94
2022/04/16 06:19:26;;;;;;;2.30;2.10;;;;;;;14.20;47.18;97555.94;4892611;29;20198;-95
2022/04/16 06:21:52;;;;;;;6.07;2.23;;;;;;;17.42;47.96;98093.91;4892027;29;20203;-91
2022/04/16 06:24:19;;;;;;;2.40;2.20;;;;;;;15.65;48.00;97787.03;4907343;29;20217;-94
2022/04/16 06:26:47;;;;;;;2.33;2.20;;;;;;;16.45;47.96;97931.91;4891851;29;20190;-93
2022/04/16 06:29:14;;;;;;;2.90;2.70;;;;;;;19.19;47.99;98414.81;4892615;29;20214;-94
2022/04/16 06:31:41;;;;;;;2.60;2.40;;;;;;;19.10;47.98;98393.94;4889898;29;20258;-92
2022/04/16 06:34:08;;;;;;;3.63;2.50;;;;;;;17.57;48.12;98130.34;4900494;29;20230;-91
2022/04/16 06:36:35;;;;;;;2.67;2.30;;;;;;;19.01;48.57;98384.13;4873569;29;20209;-91
2022/04/16 06:39:01;;;;;;;2.70;2.50;;;;;;;18.85;47.82;98360.31;4886873;29;20676;-92
2022/04/16 06:41:31;;;;;;;3.10;2.80;;;;;;;16.01;47.68;97867.66;4906707;29;20210;-93
2022/04/16 06:43:58;;;;;;;2.97;2.70;;;;;;;18.30;47.56;98275.03;4889873;29;20211;-94
2022/04/16 06:46:25;;;;;;;4.70;2.80;;;;;;;15.72;47.76;97828.00;4904949;29;20191;-93
2022/04/16 06:48:51;;;;;;;4.73;2.90;;;;;;;16.44;48.39;97958.06;4913254;29;20218;-92
2022/04/16 06:51:18;;;;;;;2.90;2.70;;;;;;;16.05;47.70;97905.09;4921256;29;20190;-93
2022/04/16 06:53:45;;;;;;;3.47;3.17;;;;;;;17.29;48.13;98124.47;4907642;29;20202;-92
2022/04/16 06:56:11;;;;;;;2.87;2.67;;;;;;;17.94;48.12;98233.22;4890187;29;20200;-94
2022/04/16 06:58:38;;;;;;;3.30;3.00;;;;;;;16.38;48.75;97956.00;4906175;29;20288;-94
2022/04/16 07:01:05;;;;;;;2.17;2.03;;;;;;;16.65;48.30;97998.97;4905581;29;20223;-94
2022/04/16 07:03:31;;;;;;;2.70;2.50;;;;;;;17.62;48.36;98166.16;4921017;29;20202;-91
2022/04/16 07:05:58;;;;;;;4.20;2.30;;;;;;;16.39;48.45;97965.38;4921152;29;20213;-92
2022/04/16 07:08:25;;;;;;;3.37;2.60;;;;;;;16.20;47.98;97933.84;4921012;29;20210;-93
2022/04/16 07:10:52;;;;;;;4.53;3.00;;;;;;;16.32;46.29;97988.63;4889508;29;20190;-93
2022/04/16 07:13:19;;;;;;;4.80;3.67;;;;;;;13.76;45.40;97503.59;4890318;29;20198;-91
2022/04/16 07:15:46;;;;;;;4.73;3.30;;;;;;;19.42;45.33;98491.72;4905532;29;20178;-94
2022/04/16 07:18:12;;;;;;;3.40;3.10;;;;;;;15.79;45.47;97855.47;4922002;29;20194;-94
2022/04/16 07:20:40;;;;;;;4.13;3.57;;;;;;;18.47;45.81;98322.63;4905490;29;20612;-93
2022/04/16 07:23:07;;;;;;;3.70;3.40;;;;;;;17.33;46.06;98125.53;4905662;29;20186;-93
2022/04/16 07:25:34;;;;;;;4.93;2.90;;;;;;;18.35;46.57;98305.81;4905035;29;20479;-93
2022/04/16 07:28:01;;;;;;;5.20;3.10;;;;;;;17.55;46.49;98199.63;4889875;29;20195;-93
2022/04/16 07:30:27;;;;;;;3.00;2.80;;;;;;;16.45;46.86;97980.09;4889996;29;20190;-93
2022/04/16 07:32:54;;;;;;;3.23;2.93;;;;;;;17.64;46.82;98187.44;4889906;29;20210;-92
2022/04/16 07:35:26;;;;;;;5.40;3.10;;;;;;;16.08;47.10;97912.88;4906423;29;20218;-94
2022/04/16 07:37:57;;;;;;;3.07;2.77;;;;;;;17.26;47.06;98133.63;4874806;29;20214;-92
2022/04/16 07:40:27;;;;;;;5.83;2.93;;;;;;;17.19;47.40;98127.31;4905574;29;20187;-93
2022/04/16 07:42:54;;;;;;;3.20;2.90;;;;;;;19.41;47.61;98496.72;4889814;29;20216;-93
2022/04/16 07:45:23;;;;;;;4.30;2.50;;;;;;;18.31;47.43;98311.50;4890180;29;20218;-93
2022/04/16 07:47:50;;;;;;;3.00;2.63;;;;;;;18.36;47.79;98313.53;4890033;29;20253;-92
2022/04/16 07:50:16;;;;;;;2.33;2.17;;;;;;;17.24;47.56;98120.84;4905046;29;20290;-92
2022/04/16 07:52:46;;;;;;;2.60;2.40;;;;;;;16.34;48.24;98009.00;4889897;29;20194;-91
2022/04/16 07:55:14;;;;;;;2.87;2.40;;;;;;;16.80;47.78;98073.44;4889126;29;20214;-94
2022/04/16 07:57:40;;;;;;;2.50;2.30;;;;;;;18.89;47.94;98411.50;4890193;29;20195;-93
2022/04/16 08:00:09;;;;;;;4.80;2.30;;;;;;;15.88;47.82;97908.31;4920921;29;20178;-93
2022/04/16 08:02:35;;;;;;;2.53;2.33;;;;;;;16.38;48.02;97983.06;4905235;29;20205;-94
2022/04/16 08:05:02;;;;;;;2.67;2.47;;;;;;;18.05;48.18;98267.75;4920064;29;20202;-94
2022/04/16 08:07:30;;;;;;;2.20;2.00;;;;;;;15.90;48.09;97889.88;4940166;29;20212;-94
2022/04/16 08:09:56;;;;;;;2.43;2.23;;;;;;;17.82;48.29;98232.53;4893053;29;20220;-92
2022/04/16 08:12:25;;;;;;;2.40;2.20;;;;;;;15.20;48.07;97799.59;4908196;29;20178;-93
2022/04/16 08:14:52;;;;;;;2.50;2.30;;;;;;;19.43;48.20;98508.78;4893371;29;20233;-92
2022/04/16 08:17:18;;;;;;;2.53;2.33;;;;;;;15.74;48.11;97855.97;4892937;29;20200;-92
2022/04/16 08:19:45;;;;;;;3.13;1.90;;;;;;;16.22;48.18;97962.66;4923829;29;20186;-93
2022/04/16 08:22:17;;;;;;;3.00;2.00;;;;;;;14.71;48.15;97708.97;4939452;29;20185;-92
2022/04/16 08:24:54;;;;;;;3.73;2.10;;;;;;;16.39;48.37;98018.66;4924540;29;20216;-94
2022/04/16 08:27:21;;;;;;;2.60;2.00;;;;;;;18.35;48.33;98331.25;4909628;29;20174;-93
2022/04/16 08:29:47;;;;;;;2.63;1.83;;;;;;;19.44;48.33;98530.03;4908277;29;20241;-92
2022/04/16 08:32:14;;;;;;;2.10;1.90;;;;;;;15.25;47.92;97790.59;4907599;29;20197;-91
2022/04/16 08:34:48;;;;;;;1.70;1.60;;;;;;;19.45;48.09;98530.09;4939812;29;20220;-91
2022/04/16 08:37:15;;;;;;;2.33;2.13;;;;;;;17.79;48.53;98279.78;4908218;29;20186;-94
2022/04/16 08:39:42;;;;;;;1.80;1.70;;;;;;;18.38;48.46;98334.00;4907862;29;20189;-93
2022/04/16 08:42:08;;;;;;;1.90;1.67;;;;;;;16.86;48.34;98074.66;4939338;29;20190;-93
2022/04/16 08:44:35;;;;;;;1.90;1.80;;;;;;;16.67;48.47;98041.41;4907821;29;20222;-94
2022/04/16 08:47:02;;;;;;;1.80;1.70;;;;;;;17.10;48.39;98115.75;4907888;29;20204;-93
2022/04/16 08:49:29;;;;;;;1.97;1.87;;;;;;;17.40;48.30;98222.50;4907645;29;20229;-93
2022/04/16 08:51:56;;;;;;;1.60;1.50;;;;;;;17.42;48.41;98184.47;4923422;29;20185;-93
2022/04/16 08:54:23;;;;;;;1.70;1.60;;;;;;;17.42;48.47;98169.22;4909123;29;20214;-94
2022/04/16 08:56:49;;;;;;;1.80;1.70;;;;;;;16.88;48.70;98073.09;4927424;29;20201;-93
2022/04/16 08:59:16;;;;;;;1.70;1.60;;;;;;;18.37;48.57;98342.38;4927546;29;20185;-93
2022/04/16 09:01:43;;;;;;;1.80;1.70;;;;;;;17.35;48.30;98172.22;4942923;29;20216;-94
2022/04/16 09:04:22;;;;;;;1.90;1.80;;;;;;;18.40;48.50;98391.81;4896230;29;20214;-93
2022/04/16 09:07:00;;;;;;;1.73;1.63;;;;;;;18.31;48.41;98347.13;4911595;29;20212;-95
2022/04/16 09:09:27;;;;;;;1.83;1.73;;;;;;;17.31;48.56;98162.66;4911751;29;20213;-94
2022/04/16 09:11:54;;;;;;;1.90;1.80;;;;;;;17.44;48.44;98185.47;4895447;29;20196;-93
2022/04/16 09:14:37;;;;;;;1.70;1.60;;;;;;;18.70;48.64;98429.13;4943315;29;20222;-93
2022/04/16 09:17:13;;;;;;;1.50;1.40;;;;;;;17.45;48.64;98179.59;4911295;29;20241;-94
2022/04/16 09:19:40;;;;;;;2.60;1.57;;;;;;;15.07;48.62;97772.69;4912015;29;20213;-93
2022/04/16 09:22:10;;;;;;;1.63;1.53;;;;;;;17.77;48.49;98245.81;4926623;29;20242;-94
2022/04/16 09:24:49;;;;;;;1.70;1.60;;;;;;;16.58;48.56;98038.34;4911122;29;20225;-93
2022/04/16 09:27:15;;;;;;;1.60;1.50;;;;;;;18.69;48.48;98398.50;4911465;29;20181;-94
2022/04/16 09:29:43;;;;;;;1.70;1.60;;;;;;;17.12;48.43;98137.94;4911372;29;20250;-93
2022/04/16 09:32:20;;;;;;;1.73;1.63;;;;;;;19.48;48.59;98545.56;4911362;29;20202;-94
2022/04/16 09:34:46;;;;;;;1.40;1.30;;;;;;;16.74;48.63;98063.81;4912150;29;20205;-90
2022/04/16 09:37:13;;;;;;;1.60;1.50;;;;;;;17.73;48.50;98266.75;4926768;29;20220;-94
2022/04/16 09:39:40;;;;;;;1.60;1.50;;;;;;;17.35;48.71;98174.78;4910805;29;20182;-94
2022/04/16 09:42:07;;;;;;;2.33;1.60;;;;;;;18.39;48.48;98364.63;4895714;29;20209;-93
2022/04/16 09:44:34;;;;;;;1.50;1.40;;;;;;;15.56;48.13;97873.53;4910607;29;20234;-94
2022/04/16 09:47:00;;;;;;;1.80;1.70;;;;;;;18.74;48.53;98425.94;4895760;29;20209;-93
2022/04/16 09:49:27;;;;;;;1.57;1.47;;;;;;;16.38;48.62;98041.41;4926460;29;20234;-94
2022/04/16 09:51:54;;;;;;;1.50;1.40;;;;;;;18.42;48.73;98379.19;4910348;29;20186;-94
2022/04/16 09:54:21;;;;;;;1.70;1.50;;;;;;;17.16;48.68;98167.78;4910526;29;20225;-93
2022/04/16 09:56:48;;;;;;;1.80;1.70;;;;;;;18.04;48.41;98327.03;4910443;29;20190;-90
2022/04/16 09:59:15;;;;;;;1.70;1.60;;;;;;;16.35;48.78;98023.47;4910968;29;20218;-93
2022/04/16 10:01:47;;;;;;;1.70;1.60;;;;;;;17.54;48.71;98258.88;4910012;29;20212;-94
2022/04/16 10:04:18;;;;;;;1.70;1.60;;;;;;;16.64;48.64;98098.72;4887211;29;20202;-94
2022/04/16 10:06:45;;;;;;;1.70;1.60;;;;;;;17.09;48.45;98205.44;4907136;29;20193;-93
2022/04/16 10:09:22;;;;;;;1.60;1.50;;;;;;;18.24;48.64;98356.97;4892006;29;20198;-94
2022/04/16 10:15:06;;;;;;;1.50;1.40;;;;;;;14.81;48.58;97774.47;4909368;29;20220;-94
2022/04/16 10:17:42;;;;;;;1.73;1.50;;;;;;;16.25;48.48;98016.97;4892671;29;20202;-93
2022/04/16 10:20:09;;;;;;;1.60;1.50;;;;;;;17.34;48.42;98245.03;4879739;29;20194;-92
2022/04/16 10:22:36;;;;;;;1.70;1.60;;;;;;;17.70;48.67;98280.16;4910357;29;20183;-94
2022/04/16 10:25:04;;;;;;;1.70;1.60;;;;;;;17.74;48.47;98319.34;4906711;29;20213;-93
2022/04/16 10:27:32;;;;;;;1.50;1.40;;;;;;;17.08;48.60;98218.94;4891833;29;20203;-94
2022/04/16 10:30:02;;;;;;;1.77;1.67;;;;;;;18.40;48.56;98447.81;4891016;29;20246;-93
2022/04/16 10:32:42;;;;;;;1.70;1.60;;;;;;;15.87;48.75;97988.53;4891546;29;20226;-92
2022/04/16 10:35:14;;;;;;;1.40;1.30;;;;;;;18.12;48.61;98388.50;4875932;29;20221;-92
2022/04/16 10:37:42;;;;;;;1.50;1.40;;;;;;;18.69;48.88;98459.59;4891731;29;20187;-92
2022/04/16 10:40:18;;;;;;;1.60;1.50;;;;;;;15.77;48.82;98001.47;4906255;29;20214;-92
2022/04/16 10:42:50;;;;;;;1.70;1.60;;;;;;;16.04;48.24;98032.59;4906675;29;20186;-92
2022/04/16 10:45:19;;;;;;;1.50;1.40;;;;;;;15.97;48.77;97979.81;4891945;29;20229;-94
2022/04/16 10:47:49;;;;;;;1.70;1.60;;;;;;;14.59;48.55;97793.44;4906679;29;20193;-93
2022/04/16 10:50:19;;;;;;;1.60;1.50;;;;;;;17.36;48.66;98232.41;4890770;29;20218;-90
2022/04/16 10:52:56;;;;;;;1.80;1.70;;;;;;;14.86;48.65;97808.53;4891796;29;20202;-92
2022/04/16 10:55:36;;;;;;;1.60;1.50;;;;;;;15.82;48.51;97966.25;4890930;29;20213;-94
2022/04/16 10:58:03;;;;;;;1.83;1.40;;;;;;;15.72;48.81;97963.97;4892491;29;20218;-95
2022/04/16 11:00:49;;;;;;;1.70;1.60;;;;;;;14.05;48.58;97724.34;4890665;29;20214;-94
2022/04/16 11:03:27;;;;;;;1.57;1.47;;;;;;;17.52;48.63;98302.00;4890886;29;20190;-94
2022/04/16 11:06:04;;;;;;;1.87;1.73;;;;;;;17.53;48.60;98280.88;4890917;29;20190;-94
2022/04/16 11:08:33;;;;;;;1.47;1.37;;;;;;;17.90;48.63;98350.81;4890596;29;20190;-94
2022/04/16 11:11:04;;;;;;;1.50;1.40;;;;;;;18.41;48.71;98411.38;4891741;29;20238;-93
2022/04/16 11:13:33;;;;;;;1.70;1.60;;;;;;;14.60;48.11;97764.81;4905692;29;20194;-95
2022/04/16 11:16:03;;;;;;;1.83;1.73;;;;;;;18.39;48.51;98402.81;4890472;29;20262;-94
2022/04/16 11:18:43;;;;;;;1.70;1.60;;;;;;;14.44;48.60;97744.47;4906164;29;20186;-93
2022/04/16 11:21:12;;;;;;;1.60;1.50;;;;;;;17.73;48.62;98303.22;4890563;29;20202;-93
2022/04/16 11:23:45;;;;;;;1.50;1.40;;;;;;;17.38;48.77;98231.69;4890544;29;20203;-93
2022/04/16 11:34:33;;;;;;;1.50;1.40;;;;;;;17.36;48.75;98222.25;4894359;29;20218;-93
2022/04/16 11:37:20;;;;;;;1.63;1.53;;;;;;;17.74;48.81;98319.34;4907950;29;20229;-92
2022/04/16 11:39:48;;;;;;;1.60;1.50;;;;;;;14.86;48.76;97837.22;4905602;29;20293;-94
2022/04/16 11:42:15;;;;;;;1.80;1.70;;;;;;;16.57;48.56;98120.34;4889096;29;20209;-93
2022/04/16 11:44:42;;;;;;;1.60;1.50;;;;;;;17.37;48.82;98222.34;4889872;29;20227;-94
2022/04/16 11:47:18;;;;;;;1.60;1.50;;;;;;;17.52;48.62;98261.34;4920781;29;20209;-93
2022/04/16 11:49:52;;;;;;;1.70;1.60;;;;;;;16.31;48.19;98041.81;4906083;29;20236;-93
2022/04/16 11:52:26;;;;;;;1.70;1.60;;;;;;;16.28;48.62;98032.38;4873980;29;20198;-91
2022/04/16 11:55:16;;;;;;;1.10;1.10;;;;;;;19.46;48.72;98584.53;4905167;29;20214;-94
2022/04/16 11:57:44;;;;;;;1.70;1.60;;;;;;;17.92;48.79;98328.88;4889244;29;20266;-94
2022/04/16 12:00:11;;;;;;;1.73;1.63;;;;;;;18.17;48.79;98369.28;4889265;29;20187;-93
2022/04/16 12:02:39;;;;;;;1.63;1.53;;;;;;;15.75;48.51;97946.41;4920931;29;20202;-94
2022/04/16 12:05:25;;;;;;;1.70;1.60;;;;;;;17.10;48.68;98204.63;4905042;29;20284;-95